Flight Track Log - Related Links

Times and Time Zones

All times are in EDT time to prevent confusion due to time zone crossing. See the N181MP flight status page for this flight to view local times or setup timezone preferences in your user account.

Time Position Orientation Groundspeed Altitude Reporting Facility
EDT Latitude Longitude Course Direction KTS MPH feet Rate Location/Type
Mon 08:33:53 AM 47.9642 -97.1828 360° North 133 153 1,500  Level Minneapolis Center
Mon 08:34:54 AM 48.0039 -97.1825 360° North 137 158 3,500 1,785 Climbing Minneapolis Center
Mon 08:35:54 AM 48.0281 -97.1381 51° Northeast 170 196 5,100 1,786 Climbing Minneapolis Center
Mon 08:37:05 AM 47.9825 -97.1028 153° Southeast 180 207 7,400 1,864 Climbing Minneapolis Center
Mon 08:38:06 AM 47.9347 -97.1153 190° South 178 205 9,200 1,756 Climbing Minneapolis Center
Mon 08:39:08 AM 47.8847 -97.1242 187° South 177 204 11,000 1,805 Climbing Minneapolis Center
Mon 08:40:09 AM 47.8328 -97.1317 186° South 181 208 12,900 1,721 Climbing Minneapolis Center
Mon 08:41:10 AM 47.7828 -97.1369 184° South 182 209 14,500 1,902 Climbing Minneapolis Center
Mon 08:42:12 AM 47.7269 -97.1389 181° South 175 201 16,800 1,902 Climbing Minneapolis Center
Mon 08:43:13 AM 47.6789 -97.1408 182° South 177 204 18,400 1,561 Climbing Minneapolis Center
Mon 08:44:15 AM 47.6372 -97.1422 181° South 175 201 20,000 1,268 Climbing Minneapolis Center
Mon 08:45:16 AM 47.5769 -97.1414 179° South 176 203 21,000 492 Climbing Minneapolis Center
Mon 08:46:17 AM 47.5106 -97.1475 184° South 219 252 21,000  Level Minneapolis Center
Mon 08:47:19 AM 47.4397 -97.1533 183° South 245 282 21,000  Level Minneapolis Center
Mon 08:48:20 AM 47.3678 -97.1656 187° South 255 293 21,000  Level Minneapolis Center
Mon 08:49:22 AM 47.2975 -97.1706 183° South 254 292 21,000  Level Minneapolis Center
Mon 08:50:23 AM 47.2272 -97.1703 180° South 252 290 21,000  Level Minneapolis Center
Mon 08:51:24 AM 47.1583 -97.1703 180° South 250 288 21,000  Level Minneapolis Center
Mon 08:52:26 AM 47.0878 -97.1703 180° South 251 289 21,000  Level Minneapolis Center
Mon 08:53:27 AM 47.0192 -97.1686 179° South 249 287 21,000  Level Minneapolis Center
Mon 08:54:28 AM 46.9506 -97.1689 180° South 248 285 21,000  Level Minneapolis Center
Mon 08:55:30 AM 46.8661 -97.1692 180° South 249 287 21,000  Level Minneapolis Center
Mon 08:56:31 AM 46.7972 -97.1664 178° South 250 288 21,000  Level Minneapolis Center
Mon 08:57:32 AM 46.7278 -97.1681 181° South 250 288 21,000  Level Minneapolis Center
Mon 08:58:34 AM 46.6622 -97.1656 179° South 241 277 21,000  Level Minneapolis Center
Mon 08:59:35 AM 46.5939 -97.1653 180° South 239 275 21,000  Level Minneapolis Center
Mon 09:00:36 AM 46.5294 -97.1644 179° South 237 273 21,000  Level Minneapolis Center
Mon 09:01:38 AM 46.4636 -97.1636 180° South 238 274 21,000  Level Minneapolis Center
Mon 09:02:39 AM 46.3975 -97.1642 180° South 238 274 21,000  Level Minneapolis Center
Mon 09:03:40 AM 46.3314 -97.1631 179° South 239 275 21,000  Level Minneapolis Center
Mon 09:04:42 AM 46.2519 -97.1628 180° South 238 274 21,000  Level Minneapolis Center
Mon 09:05:43 AM 46.1872 -97.1631 180° South 236 272 21,000  Level Minneapolis Center
Mon 09:06:44 AM 46.1206 -97.1622 180° South 238 274 21,000  Level Minneapolis Center
Mon 09:07:46 AM 46.0531 -97.1603 179° South 241 277 21,000  Level Minneapolis Center
Mon 09:08:47 AM 45.9864 -97.1608 180° South 241 277 21,000 -49 Level Minneapolis Center
Mon 09:09:48 AM 45.9169 -97.1600 180° South 245 282 20,900 -689 Descending Minneapolis Center
Mon 09:10:49 AM 45.8447 -97.1600 180° South 252 290 19,600 -1,366 Descending Minneapolis Center
Mon 09:11:51 AM 45.7692 -97.1589 179° South 265 305 18,100 -1,415 Descending Minneapolis Center
Mon 09:12:52 AM 45.6944 -97.1592 180° South 268 308 16,700 -1,426 Descending Minneapolis Center
Mon 09:13:53 AM 45.6111 -97.1586 180° South 257 296 15,200 -1,377 Descending Minneapolis Center
Mon 09:14:54 AM 45.5456 -97.1581 180° South 244 281 13,900 -1,119 Descending Minneapolis Center
Mon 09:16:07 AM 45.4831 -97.1583 180° South 231 266 12,700 -1,156 Descending Minneapolis Center
Mon 09:17:09 AM 45.4092 -97.1564 179° South 224 258 11,300 -1,317 Descending Minneapolis Center
Mon 09:18:10 AM 45.3436 -97.1564 180° South 230 265 10,000 -1,279 Descending Minneapolis Center
Mon 09:19:11 AM 45.2761 -97.1553 179° South 239 275 8,700 -1,220 Descending Minneapolis Center
Mon 09:20:13 AM 45.2078 -97.1572 181° South 243 280 7,500 -1,220 Descending Minneapolis Center
Mon 09:21:14 AM 45.1425 -97.1589 181° South 241 277 6,200 -1,180 Descending Minneapolis Center
Mon 09:22:15 AM 45.0764 -97.1572 179° South 239 275 5,100 -1,082 Descending Minneapolis Center

Login

Don't have an account? Register now (free) for customized features, flight alerts, and more!